No data was retrieved for https://query.yahooapis.com/v1/public/yql?q=select+%2A+from+weather.forecast+where+woeid%3D731260&format=xml&u=c



METAR rapporten vliegvelden

   
EHAM - Amsterdam
Gewijzigd: 12-07-2020 16:55
Licht bewolkt  
Licht bewolkt  
   Wind: Noorden 11.1 km/h
Wind: Noorden 11.1 km/h
Temperatuur: 19°C
Dauwpunt: 9°C
Vochtigheid: 52%
Barometer: 1028 hPa
Bewolking: Licht bewolkt
Zicht: meer dan 10 km
Bewolking: Licht bewolkt 4200 ft
EHAM 121455Z 35006KT 290V040 9999 FEW042 19/09 Q1028 NOSIG
EHBK - Maastricht
Gewijzigd: 12-07-2020 16:55
Gedeeltelijk bewolkt  
Gedeeltelijk bewolkt  
   Wind: varieert 7.4 km/h
Wind: varieert 7.4 km/h
Temperatuur: 21°C
Dauwpunt: 8°C
Vochtigheid: 43%
Barometer: 1027 hPa
Bewolking: Gedeeltelijk bewolkt
Zicht: meer dan 10 km
Bewolking: Gedeeltelijk bewolkt
EHBK 121455Z AUTO VRB04KT 9999 NSC 21/08 Q1027 NOSIG
ELLX - Luxemburg
Gewijzigd: 12-07-2020 16:50
Helder  
Helder  
   Wind: varieert 11.1 km/h
Wind: varieert 11.1 km/h
Temperatuur: 23°C
Dauwpunt: 6°C
Vochtigheid: 33%
Barometer: 1025 hPa
Zicht: meer dan 10 km
Bewolking: Helder
ELLX 121450Z VRB06KT CAVOK 23/06 Q1025 NOSIG
EDDL - Dusseldorf
Gewijzigd: 12-07-2020 16:50
Helder  
Helder  
   Wind: ONO 11.1 km/h
Wind: ONO 11.1 km/h
Temperatuur: 22°C
Dauwpunt: 7°C
Vochtigheid: 38%
Barometer: 1027 hPa
Zicht: meer dan 10 km
Bewolking: Helder
EDDL 121450Z 07006KT 030V110 CAVOK 22/07 Q1027 NOSIG
  

Script ontwikkeld door  Saratoga-weather.org Aangepast voor de template door  Weerstation Leuven